createdAt,value
2023-03-28T00:01:03.516Z,8.31
2023-03-28T00:03:35.923Z,8.12
2023-03-28T00:06:05.600Z,8.20
2023-03-28T00:08:33.163Z,8.07
2023-03-28T00:11:05.839Z,8.19
2023-03-28T00:13:33.662Z,7.90
2023-03-28T00:16:07.060Z,7.83
2023-03-28T00:18:37.631Z,7.71
2023-03-28T00:21:07.945Z,7.83
2023-03-28T00:23:35.871Z,8.07
2023-03-28T00:26:07.952Z,7.94
2023-03-28T00:28:35.524Z,7.75
2023-03-28T00:31:05.064Z,7.71
2023-03-28T00:33:32.760Z,7.58
2023-03-28T00:36:00.580Z,7.76
2023-03-28T00:38:28.204Z,7.86
2023-03-28T00:40:58.802Z,7.84
2023-03-28T00:43:46.636Z,7.84
2023-03-28T00:46:21.112Z,7.60
2023-03-28T00:48:51.631Z,7.64
2023-03-28T00:51:21.689Z,7.85
2023-03-28T00:53:49.208Z,7.80
2023-03-28T00:56:19.700Z,7.66
2023-03-28T00:58:47.970Z,7.83
2023-03-28T01:01:20.936Z,8.06
2023-03-28T01:04:20.598Z,7.88
2023-03-28T01:06:57.192Z,7.93
2023-03-28T01:09:25.521Z,7.91
2023-03-28T01:11:58.857Z,7.95
2023-03-28T01:14:31.695Z,7.77
2023-03-28T01:17:08.202Z,7.90
2023-03-28T01:19:46.474Z,8.04
2023-03-28T01:22:43.948Z,7.96
2023-03-28T01:25:56.642Z,7.88
2023-03-28T01:28:56.991Z,7.89
2023-03-28T01:31:47.486Z,7.91
2023-03-28T01:35:19.294Z,7.99
2023-03-28T01:38:09.405Z,7.78
2023-03-28T01:41:07.439Z,7.96
2023-03-28T01:43:52.913Z,7.74
2023-03-28T01:46:38.301Z,7.62
2023-03-28T01:49:40.064Z,7.78
2023-03-28T01:52:33.164Z,7.72
2023-03-28T01:55:10.729Z,7.78
2023-03-28T01:58:25.220Z,7.52
2023-03-28T02:01:09.305Z,7.77
2023-03-28T02:03:42.317Z,7.75
2023-03-28T02:06:17.399Z,7.82
2023-03-28T02:08:45.068Z,7.56
2023-03-28T02:11:19.292Z,7.61
2023-03-28T02:14:12.360Z,7.58
2023-03-28T02:17:04.817Z,7.46
2023-03-28T02:20:08.963Z,7.43
2023-03-28T02:23:15.828Z,7.40
2023-03-28T02:26:01.352Z,7.32
2023-03-28T02:28:48.859Z,7.54
2023-03-28T02:31:29.841Z,7.46
2023-03-28T02:33:58.825Z,7.52
2023-03-28T02:36:32.209Z,7.33
2023-03-28T02:39:14.742Z,7.42
2023-03-28T02:41:56.916Z,7.57
2023-03-28T02:44:50.110Z,7.80
2023-03-28T02:47:39.341Z,7.34
2023-03-28T02:50:18.770Z,7.43
2023-03-28T02:52:58.584Z,7.46
2023-03-28T02:55:47.761Z,7.12
2023-03-28T02:58:46.353Z,7.15
2023-03-28T03:01:14.621Z,7.19
2023-03-28T03:03:44.609Z,7.23
2023-03-28T03:06:12.664Z,7.22
2023-03-28T03:08:40.030Z,7.27
2023-03-28T03:11:07.358Z,7.39
2023-03-28T03:13:34.641Z,7.36
2023-03-28T03:16:04.136Z,7.23
2023-03-28T03:18:32.703Z,7.27
2023-03-28T03:21:02.698Z,7.19
2023-03-28T03:23:31.008Z,7.37
2023-03-28T03:26:00.039Z,7.46
2023-03-28T03:28:39.674Z,7.43
2023-03-28T03:31:08.172Z,7.33
2023-03-28T03:33:53.830Z,7.15
2023-03-28T03:36:27.196Z,7.39
2023-03-28T03:38:54.670Z,7.23
2023-03-28T03:41:24.824Z,7.23
2023-03-28T03:43:52.350Z,7.31
2023-03-28T03:46:19.656Z,7.28
2023-03-28T03:48:49.912Z,7.02
2023-03-28T03:51:18.167Z,7.13
2023-03-28T03:53:46.761Z,7.06
2023-03-28T03:56:16.923Z,6.82
2023-03-28T03:58:56.540Z,7.00
2023-03-28T04:01:30.155Z,7.18
2023-03-28T04:04:07.292Z,7.42
2023-03-28T04:06:51.571Z,7.21
2023-03-28T04:09:20.638Z,6.93
2023-03-28T04:11:57.391Z,6.79
2023-03-28T04:14:24.951Z,6.91
2023-03-28T04:17:04.938Z,6.87
2023-03-28T04:19:32.822Z,6.99
2023-03-28T04:22:00.127Z,7.06
2023-03-28T04:24:27.551Z,7.08
2023-03-28T04:27:18.619Z,7.29
2023-03-28T04:29:47.934Z,7.08
2023-03-28T04:32:35.933Z,6.94
2023-03-28T04:35:08.467Z,6.78
2023-03-28T04:37:37.789Z,6.58
2023-03-28T04:40:16.312Z,6.78
2023-03-28T04:43:15.383Z,6.80
2023-03-28T04:45:49.074Z,6.97
2023-03-28T04:48:18.283Z,7.02
2023-03-28T04:50:46.295Z,6.99
2023-03-28T04:53:14.905Z,7.06
2023-03-28T04:56:02.748Z,6.92
2023-03-28T04:58:31.022Z,6.71
2023-03-28T05:01:03.040Z,6.60
2023-03-28T05:03:56.655Z,6.95
2023-03-28T05:06:25.991Z,6.91
2023-03-28T05:08:53.530Z,6.81
2023-03-28T05:11:25.647Z,6.75
2023-03-28T05:13:52.914Z,6.81
2023-03-28T05:16:28.936Z,6.68
2023-03-28T05:19:05.255Z,6.57
2023-03-28T05:22:07.929Z,6.75
2023-03-28T05:24:38.202Z,6.91
2023-03-28T05:27:12.674Z,7.14
2023-03-28T05:29:40.084Z,7.11
2023-03-28T05:32:08.060Z,6.84
2023-03-28T05:34:36.163Z,6.73
2023-03-28T05:37:04.521Z,6.95
2023-03-28T05:39:43.266Z,6.85
2023-03-28T05:42:11.051Z,6.73
2023-03-28T05:44:40.590Z,6.82
2023-03-28T05:47:28.272Z,6.74
2023-03-28T05:49:58.285Z,6.48
2023-03-28T05:52:26.185Z,6.56
2023-03-28T05:54:56.112Z,6.52
2023-03-28T05:57:23.523Z,6.36
2023-03-28T05:59:51.599Z,6.49
2023-03-28T06:02:23.018Z,6.68
2023-03-28T06:04:53.651Z,6.64
2023-03-28T06:07:31.487Z,6.63
2023-03-28T06:10:09.563Z,6.50
2023-03-28T06:12:37.906Z,6.40
2023-03-28T06:15:06.107Z,6.43
2023-03-28T06:17:37.413Z,6.40
2023-03-28T06:20:07.788Z,6.58
2023-03-28T06:22:39.660Z,6.61
2023-03-28T06:25:11.691Z,6.99
2023-03-28T06:27:39.260Z,6.94
2023-03-28T06:30:10.409Z,6.87
2023-03-28T06:32:46.022Z,6.96
2023-03-28T06:35:15.757Z,6.91
2023-03-28T06:37:43.202Z,7.04
2023-03-28T06:40:11.703Z,7.06
2023-03-28T06:42:39.379Z,7.10
2023-03-28T06:45:29.633Z,7.17
2023-03-28T06:48:02.200Z,7.25
2023-03-28T06:50:52.609Z,6.80
2023-03-28T06:53:22.561Z,6.97
2023-03-28T06:55:51.170Z,7.16
2023-03-28T06:58:20.175Z,7.14
2023-03-28T07:00:53.781Z,7.38
2023-03-28T07:03:45.417Z,7.21
2023-03-28T07:06:18.267Z,7.50
2023-03-28T07:08:46.211Z,7.27
2023-03-28T07:11:18.616Z,7.32
2023-03-28T07:13:49.429Z,7.42
2023-03-28T07:16:17.188Z,7.54
2023-03-28T07:18:44.589Z,7.29
2023-03-28T07:21:17.442Z,7.50
2023-03-28T07:23:45.305Z,7.57
2023-03-28T07:26:15.476Z,7.66
2023-03-28T07:28:42.809Z,7.30
2023-03-28T07:31:11.355Z,7.60
2023-03-28T07:33:38.911Z,7.52
2023-03-28T07:36:13.820Z,7.48
2023-03-28T07:38:43.142Z,7.34
2023-03-28T07:41:10.897Z,7.26
2023-03-28T07:43:40.144Z,7.63
2023-03-28T07:46:09.839Z,7.52
2023-03-28T07:48:38.033Z,7.70
2023-03-28T07:51:06.529Z,7.69
2023-03-28T07:53:35.660Z,7.69
2023-03-28T07:56:03.621Z,7.81
2023-03-28T07:58:51.230Z,7.86
2023-03-28T08:01:19.680Z,8.07
2023-03-28T08:03:50.048Z,8.15
2023-03-28T08:06:30.932Z,8.42
2023-03-28T08:09:03.156Z,8.34
2023-03-28T08:11:39.543Z,8.27
2023-03-28T08:14:11.303Z,8.41
2023-03-28T08:16:39.013Z,8.46
2023-03-28T08:19:11.311Z,8.70
2023-03-28T08:22:02.481Z,8.87
2023-03-28T08:24:36.076Z,8.75
2023-03-28T08:27:13.118Z,9.02
2023-03-28T08:29:42.378Z,9.18
2023-03-28T08:32:10.313Z,9.39
2023-03-28T08:34:38.760Z,9.29
2023-03-28T08:37:13.774Z,9.24
2023-03-28T08:39:43.341Z,9.07
2023-03-28T08:42:28.104Z,9.10
2023-03-28T08:45:32.181Z,9.15
2023-03-28T08:48:20.558Z,9.23
2023-03-28T08:50:51.520Z,9.52
2023-03-28T08:53:49.993Z,9.36
2023-03-28T08:56:17.881Z,9.52
2023-03-28T08:59:27.152Z,9.48
2023-03-28T09:01:54.689Z,9.37
2023-03-28T09:04:39.357Z,9.42
2023-03-28T09:07:17.239Z,9.57
2023-03-28T09:09:56.822Z,9.42
2023-03-28T09:12:47.083Z,9.56
2023-03-28T09:15:20.749Z,9.62
2023-03-28T09:18:10.410Z,9.73
2023-03-28T09:21:37.415Z,9.91
2023-03-28T09:24:17.530Z,9.61
2023-03-28T09:27:02.576Z,10.09
2023-03-28T09:29:34.529Z,9.83
2023-03-28T09:32:13.285Z,10.26
2023-03-28T09:34:49.309Z,10.19
2023-03-28T09:37:31.824Z,10.39
2023-03-28T09:40:22.946Z,10.27
2023-03-28T09:43:35.463Z,10.27
2023-03-28T09:46:18.840Z,10.15
2023-03-28T09:48:59.987Z,10.18
2023-03-28T09:51:31.874Z,10.28
2023-03-28T09:53:59.469Z,10.52
2023-03-28T09:56:37.270Z,10.74
2023-03-28T09:59:40.662Z,10.96
2023-03-28T10:02:30.907Z,11.12
2023-03-28T10:05:02.855Z,10.96
2023-03-28T10:07:44.704Z,10.86
2023-03-28T10:10:22.421Z,11.06
2023-03-28T10:13:04.826Z,10.95
2023-03-28T10:15:50.124Z,11.01
2023-03-28T10:18:35.813Z,10.92
2023-03-28T10:21:20.995Z,11.00
2023-03-28T10:24:04.060Z,11.14
2023-03-28T10:26:31.654Z,11.06
2023-03-28T10:29:04.738Z,11.35
2023-03-28T10:31:33.269Z,11.28
2023-03-28T10:34:29.766Z,11.28
2023-03-28T10:37:30.041Z,11.24
2023-03-28T10:40:19.172Z,11.25
2023-03-28T10:43:14.655Z,11.97
2023-03-28T10:45:47.205Z,11.92
2023-03-28T10:48:22.636Z,11.73
2023-03-28T10:50:53.650Z,11.90
2023-03-28T10:53:37.169Z,12.06
2023-03-28T10:56:24.677Z,11.80
2023-03-28T10:59:31.125Z,11.86
2023-03-28T11:02:24.271Z,11.96
2023-03-28T11:05:01.904Z,11.65
2023-03-28T11:07:45.448Z,11.84
2023-03-28T11:10:32.646Z,11.75
2023-03-28T11:13:22.330Z,11.84
2023-03-28T11:15:50.030Z,11.68
2023-03-28T11:18:56.459Z,11.81
2023-03-28T11:21:52.340Z,11.65
2023-03-28T11:24:20.174Z,11.84
2023-03-28T11:27:27.529Z,11.93
2023-03-28T11:30:17.791Z,12.21
2023-03-28T11:32:59.700Z,12.17
2023-03-28T11:36:09.848Z,11.97
2023-03-28T11:38:41.190Z,12.22
2023-03-28T11:41:22.962Z,12.11
2023-03-28T11:44:21.393Z,11.67
2023-03-28T11:46:59.576Z,11.84
2023-03-28T11:49:38.240Z,11.58
2023-03-28T11:52:44.994Z,11.42
2023-03-28T11:55:17.514Z,11.63
2023-03-28T11:57:58.006Z,11.74
2023-03-28T12:00:34.521Z,11.81
2023-03-28T12:03:34.337Z,12.02
2023-03-28T12:06:05.803Z,12.11
2023-03-28T12:08:49.678Z,12.42
2023-03-28T12:11:52.641Z,12.58
2023-03-28T12:14:36.379Z,12.60
2023-03-28T12:17:21.147Z,12.46
2023-03-28T12:19:49.182Z,12.48
2023-03-28T12:22:26.616Z,12.72
2023-03-28T12:25:00.357Z,12.63
2023-03-28T12:27:57.224Z,12.55
2023-03-28T12:30:35.712Z,12.77
2023-03-28T12:33:37.843Z,12.96
2023-03-28T12:36:18.609Z,13.18
2023-03-28T12:39:03.421Z,13.29
2023-03-28T12:41:38.163Z,13.16
2023-03-28T12:44:15.514Z,13.23
2023-03-28T12:46:55.864Z,13.12
2023-03-28T12:49:42.199Z,13.00
2023-03-28T12:52:16.515Z,13.04
2023-03-28T12:55:01.085Z,13.01
2023-03-28T12:57:40.507Z,12.60
2023-03-28T13:00:24.336Z,12.62
2023-03-28T13:03:57.392Z,12.62
2023-03-28T13:06:48.162Z,12.75
2023-03-28T13:09:40.262Z,12.80
2023-03-28T13:12:22.640Z,12.80
2023-03-28T13:15:23.437Z,12.37
2023-03-28T13:18:21.784Z,12.48
2023-03-28T13:20:51.669Z,12.48
2023-03-28T13:23:25.266Z,12.59
2023-03-28T13:25:57.694Z,12.51
2023-03-28T13:28:54.548Z,12.31
2023-03-28T13:31:24.588Z,12.57
2023-03-28T13:33:52.212Z,12.48
2023-03-28T13:36:22.440Z,12.47
2023-03-28T13:38:59.956Z,12.33
2023-03-28T13:41:42.690Z,12.48
2023-03-28T13:44:20.804Z,12.49
2023-03-28T13:46:49.445Z,12.55
2023-03-28T13:49:24.388Z,12.37
2023-03-28T13:51:52.207Z,12.32
2023-03-28T13:54:19.878Z,12.44
2023-03-28T13:56:48.861Z,12.73
2023-03-28T13:59:25.136Z,12.39
2023-03-28T14:02:00.642Z,12.39
2023-03-28T14:04:32.747Z,12.50
2023-03-28T14:07:01.598Z,12.51
2023-03-28T14:09:28.797Z,12.68
2023-03-28T14:12:12.083Z,12.37
2023-03-28T14:14:51.117Z,12.59
2023-03-28T14:17:22.069Z,12.51
2023-03-28T14:19:57.092Z,12.26
2023-03-28T14:22:27.090Z,12.37
2023-03-28T14:24:58.486Z,12.20
2023-03-28T14:27:39.165Z,12.08
2023-03-28T14:30:17.374Z,12.06
2023-03-28T14:32:57.356Z,12.39
2023-03-28T14:35:29.107Z,12.27
2023-03-28T14:37:58.915Z,12.42
2023-03-28T14:40:33.396Z,11.92
2023-03-28T14:43:04.689Z,12.12
2023-03-28T14:45:37.906Z,12.09
2023-03-28T14:48:08.852Z,12.41
2023-03-28T14:50:39.260Z,12.41
2023-03-28T14:53:11.505Z,12.39
2023-03-28T14:55:39.354Z,12.46
2023-03-28T14:58:06.722Z,12.40
2023-03-28T15:00:39.116Z,12.66
2023-03-28T15:03:12.217Z,12.53
2023-03-28T15:05:39.579Z,12.07
2023-03-28T15:08:37.850Z,12.31
2023-03-28T15:11:09.274Z,12.23
2023-03-28T15:13:40.734Z,12.22
2023-03-28T15:16:09.152Z,12.40
2023-03-28T15:18:44.277Z,12.37
2023-03-28T15:21:12.217Z,12.26
2023-03-28T15:23:49.190Z,12.28
2023-03-28T15:26:26.524Z,12.38
2023-03-28T15:28:55.394Z,12.53
2023-03-28T15:31:23.253Z,12.45
2023-03-28T15:33:52.497Z,12.54
2023-03-28T15:36:24.066Z,12.49
2023-03-28T15:39:02.455Z,12.30
2023-03-28T15:41:48.144Z,12.23
2023-03-28T15:44:33.147Z,12.33
2023-03-28T15:47:22.066Z,12.26
2023-03-28T15:49:50.718Z,12.44
2023-03-28T15:52:20.774Z,12.59
2023-03-28T15:54:54.512Z,12.48
2023-03-28T15:57:24.965Z,12.60
2023-03-28T15:59:52.269Z,12.45
2023-03-28T16:02:22.948Z,12.59
2023-03-28T16:05:13.217Z,12.45
2023-03-28T16:07:47.357Z,12.45
2023-03-28T16:10:17.300Z,12.60
2023-03-28T16:13:14.955Z,12.60
2023-03-28T16:16:05.216Z,12.42
2023-03-28T16:19:01.800Z,12.48
2023-03-28T16:21:29.600Z,12.59
2023-03-28T16:23:56.886Z,12.54
2023-03-28T16:26:25.765Z,12.45
2023-03-28T16:28:53.050Z,12.52
2023-03-28T16:31:20.912Z,12.52
2023-03-28T16:33:48.972Z,12.16
2023-03-28T16:36:17.463Z,12.11
2023-03-28T16:38:45.802Z,12.20
2023-03-28T16:41:17.097Z,12.13
2023-03-28T16:43:45.245Z,12.14
2023-03-28T16:46:13.345Z,12.05
2023-03-28T16:48:41.677Z,12.21
2023-03-28T16:51:13.161Z,12.18
2023-03-28T16:53:41.020Z,12.37
2023-03-28T16:56:11.857Z,12.06
2023-03-28T16:58:39.414Z,12.36
2023-03-28T17:01:19.225Z,12.73
2023-03-28T17:03:47.138Z,12.77
2023-03-28T17:06:16.718Z,12.61
2023-03-28T17:08:44.381Z,12.48
2023-03-28T17:11:13.702Z,12.46
2023-03-28T17:13:42.167Z,12.34
2023-03-28T17:16:10.767Z,12.02
2023-03-28T17:18:38.924Z,12.12
2023-03-28T17:21:11.777Z,12.06
2023-03-28T17:23:40.742Z,11.99
2023-03-28T17:26:09.573Z,12.20
2023-03-28T17:28:39.271Z,11.98
2023-03-28T17:31:08.935Z,12.22
2023-03-28T17:33:36.519Z,12.04
2023-03-28T17:36:36.423Z,12.02
2023-03-28T17:39:04.488Z,11.80
2023-03-28T17:41:32.237Z,11.85
2023-03-28T17:44:09.909Z,11.75
2023-03-28T17:46:39.309Z,11.57
2023-03-28T17:49:08.222Z,11.68
2023-03-28T17:51:35.545Z,11.75
2023-03-28T17:54:04.940Z,11.73
2023-03-28T17:56:32.392Z,11.99
2023-03-28T17:58:59.901Z,11.91
2023-03-28T18:01:27.392Z,11.85
2023-03-28T18:03:55.169Z,12.02
2023-03-28T18:06:42.628Z,11.66
2023-03-28T18:09:10.181Z,11.74
2023-03-28T18:11:39.230Z,11.65
2023-03-28T18:14:08.435Z,11.78
2023-03-28T18:16:36.396Z,11.46
2023-03-28T18:19:06.752Z,11.53
2023-03-28T18:21:34.232Z,11.67
2023-03-28T18:24:01.455Z,11.50
2023-03-28T18:26:28.993Z,11.78
2023-03-28T18:28:56.762Z,11.91
2023-03-28T18:31:28.139Z,11.93
2023-03-28T18:33:57.272Z,11.65
2023-03-28T18:36:25.286Z,11.57
2023-03-28T18:38:56.151Z,12.00
2023-03-28T18:41:24.227Z,11.82
2023-03-28T18:43:51.457Z,11.77
2023-03-28T18:46:18.855Z,11.66
2023-03-28T18:48:46.385Z,11.64
2023-03-28T18:51:14.002Z,11.95
2023-03-28T18:53:41.770Z,11.80
2023-03-28T18:56:10.462Z,11.84
2023-03-28T18:58:38.384Z,11.74
2023-03-28T19:01:08.856Z,11.48
2023-03-28T19:03:40.368Z,11.57
2023-03-28T19:06:10.076Z,11.85
2023-03-28T19:08:37.456Z,11.84
2023-03-28T19:11:13.396Z,11.53
2023-03-28T19:13:41.473Z,11.68
2023-03-28T19:16:11.755Z,11.67
2023-03-28T19:18:40.648Z,11.73
2023-03-28T19:21:09.150Z,11.64
2023-03-28T19:23:36.992Z,11.69
2023-03-28T19:26:05.815Z,11.83
2023-03-28T19:28:33.230Z,11.77
2023-03-28T19:31:11.677Z,11.63
2023-03-28T19:33:40.769Z,11.91
2023-03-28T19:36:08.781Z,12.07
2023-03-28T19:38:37.804Z,11.93
2023-03-28T19:41:10.458Z,11.73
2023-03-28T19:43:39.162Z,12.07
2023-03-28T19:46:08.674Z,11.81
2023-03-28T19:48:36.964Z,11.99
2023-03-28T19:51:04.311Z,12.00
2023-03-28T19:53:32.385Z,11.90
2023-03-28T19:56:00.840Z,11.80
2023-03-28T19:58:28.458Z,11.83
2023-03-28T20:00:56.853Z,11.85
2023-03-28T20:03:24.581Z,11.89
2023-03-28T20:05:52.074Z,11.80
2023-03-28T20:08:19.870Z,11.57
2023-03-28T20:10:49.618Z,11.68
2023-03-28T20:13:18.674Z,11.48
2023-03-28T20:15:46.611Z,11.48
2023-03-28T20:18:19.972Z,11.52
2023-03-28T20:20:58.390Z,11.48
2023-03-28T20:23:27.095Z,11.55
2023-03-28T20:25:55.325Z,11.81
2023-03-28T20:28:26.522Z,11.80
2023-03-28T20:30:54.314Z,11.51
2023-03-28T20:33:21.820Z,11.26
2023-03-28T20:35:59.214Z,11.45
2023-03-28T20:38:27.418Z,11.50
2023-03-28T20:40:54.794Z,11.58
2023-03-28T20:43:24.127Z,11.46
2023-03-28T20:45:56.148Z,11.76
2023-03-28T20:48:34.956Z,11.55
2023-03-28T20:51:04.016Z,11.43
2023-03-28T20:53:33.112Z,11.61
2023-03-28T20:56:02.323Z,11.45
2023-03-28T20:58:33.116Z,11.38
2023-03-28T21:01:01.927Z,11.31
2023-03-28T21:03:48.628Z,11.61
2023-03-28T21:06:39.716Z,11.66
2023-03-28T21:09:09.806Z,11.67
2023-03-28T21:11:37.764Z,11.53
2023-03-28T21:14:06.647Z,11.64
2023-03-28T21:16:34.541Z,11.70
2023-03-28T21:19:02.705Z,11.51
2023-03-28T21:21:33.044Z,11.77
2023-03-28T21:24:00.951Z,11.94
2023-03-28T21:26:29.325Z,11.90
2023-03-28T21:28:56.868Z,11.77
2023-03-28T21:31:28.657Z,11.65
2023-03-28T21:33:57.340Z,11.83
2023-03-28T21:36:26.459Z,11.84
2023-03-28T21:38:54.629Z,11.75
2023-03-28T21:41:22.527Z,11.75
2023-03-28T21:43:50.548Z,11.81
2023-03-28T21:46:20.941Z,11.83
2023-03-28T21:48:48.615Z,11.87
2023-03-28T21:51:17.457Z,11.76
2023-03-28T21:53:45.861Z,11.83
2023-03-28T21:56:14.872Z,11.73
2023-03-28T21:58:42.361Z,11.73
2023-03-28T22:01:13.702Z,11.82
2023-03-28T22:03:41.368Z,11.73
2023-03-28T22:06:09.002Z,11.63
2023-03-28T22:08:36.729Z,11.67
2023-03-28T22:11:14.440Z,11.81
2023-03-28T22:13:42.696Z,11.73
2023-03-28T22:16:12.732Z,11.91
2023-03-28T22:18:41.699Z,11.65
2023-03-28T22:21:09.651Z,11.90
2023-03-28T22:23:37.300Z,11.78
2023-03-28T22:26:04.764Z,11.73
2023-03-28T22:28:32.007Z,11.78
2023-03-28T22:30:59.447Z,12.08
2023-03-28T22:33:31.093Z,11.89
2023-03-28T22:35:58.602Z,11.76
2023-03-28T22:38:25.959Z,11.74
2023-03-28T22:40:53.443Z,11.79
2023-03-28T22:43:20.724Z,11.75
2023-03-28T22:45:47.970Z,11.84
2023-03-28T22:48:15.273Z,11.52
2023-03-28T22:50:47.238Z,11.80
2023-03-28T22:53:15.038Z,11.90
2023-03-28T22:55:43.644Z,11.80
2023-03-28T22:58:11.874Z,11.94
2023-03-28T23:00:39.207Z,11.85
2023-03-28T23:03:08.005Z,11.67
2023-03-28T23:05:36.199Z,11.83
2023-03-28T23:08:04.715Z,11.89
2023-03-28T23:10:32.509Z,11.88
2023-03-28T23:13:00.312Z,11.67
2023-03-28T23:15:27.627Z,11.84
2023-03-28T23:17:54.914Z,11.71
2023-03-28T23:20:22.725Z,11.60
2023-03-28T23:22:50.199Z,11.70
2023-03-28T23:25:18.775Z,11.70
2023-03-28T23:27:46.600Z,11.64
2023-03-28T23:30:14.976Z,11.64
2023-03-28T23:32:42.330Z,11.67
2023-03-28T23:35:10.818Z,11.92
2023-03-28T23:37:38.516Z,11.77
2023-03-28T23:40:10.922Z,11.68
2023-03-28T23:42:38.297Z,11.61
2023-03-28T23:45:06.010Z,11.72
2023-03-28T23:47:33.288Z,11.68
2023-03-28T23:50:00.621Z,11.62
2023-03-28T23:52:27.943Z,11.60
2023-03-28T23:57:25.261Z,11.83
2023-03-28T23:59:52.674Z,11.84
